Latest Weather Observations for South Channel Island

IDV60801

Issued at 5:03 pm EDT Saturday 5 December 2020 (issued every 10 minutes, with the page automatically refreshed every 10 minutes)

About weather observations | Map of weather stations | Latest weather observations for VIC | Other Formats
Station Details ID: 086344 Name: SOUTH CHANNEL ISLAND Lat: -38.31 Lon: 144.80 Height: 9.0 m
Data from the previous 72 hours. | See also: Recent months at South Channel Island
Date/Time
EDT
Temp
°C
App
Temp
°C
Dew
Point
°C
Rel
Hum
%
Delta-T
°C
Wind Press
QNH
hPa
Press
MSL
hPa
Rain since
9am
mm
Dir  Spd
km/h
Gust
km/h
Spd
kts
Gust
kts
05/05:00pm - - - - - NNW 39 48 21 26 - - -
05/04:30pm - - - - - NNW 44 56 24 30 - - -
05/04:00pm - - - - - NNW 50 57 27 31 - - -
05/03:30pm - - - - - NNW 35 41 19 22 - - -
05/03:27pm - - - - - NNW 33 41 18 22 - - -
05/03:00pm - - - - - N 13 33 7 18 - - -
05/02:43pm - - - - - N 15 50 8 27 - - -
05/02:30pm - - - - - NE 13 17 7 9 - - -
05/02:00pm - - - - - NNE 24 30 13 16 - - -
05/01:30pm - - - - - NNE 24 28 13 15 - - -
05/01:00pm - - - - - NE 35 39 19 21 - - -
05/12:30pm - - - - - NNE 50 59 27 32 - - -
05/12:00pm - - - - - NNE 37 46 20 25 - - -
05/11:30am - - - - - NE 32 39 17 21 - - -
05/11:00am - - - - - ENE 22 26 12 14 - - -
05/10:30am - - - - - NE 26 30 14 16 - - -
05/10:00am - - - - - NNE 28 32 15 17 - - -
05/09:30am - - - - - NNE 41 48 22 26 - - -
05/09:00am - - - - - NNE 32 35 17 19 - - -
05/08:30am - - - - - NE 32 35 17 19 - - -
05/08:00am - - - - - NE 32 33 17 18 - - -
05/07:30am - - - - - NE 28 30 15 16 - - -
05/07:00am - - - - - NNE 26 30 14 16 - - -
05/06:30am - - - - - NNE 24 28 13 15 - - -
05/06:00am - - - - - NNE 28 33 15 18 - - -
05/05:30am - - - - - NE 33 37 18 20 - - -
05/05:00am - - - - - NE 33 39 18 21 - - -
05/04:30am - - - - - ENE 35 41 19 22 - - -
05/04:00am - - - - - ENE 35 39 19 21 - - -
05/03:30am - - - - - ENE 35 41 19 22 - - -
05/03:00am - - - - - ENE 24 28 13 15 - - -
05/02:30am - - - - - E 17 19 9 10 - - -
05/02:00am - - - - - E 17 19 9 10 - - -
05/01:30am - - - - - E 17 19 9 10 - - -
05/01:00am - - - - - ENE 15 19 8 10 - - -
05/12:30am - - - - - ENE 15 19 8 10 - - -
05/12:00am - - - - - ENE 2 9 1 5 - - -
 
Date/Time
EDT
Temp
°C
App
Temp
°C
Dew
Point
°C
Rel
Hum
%
Delta-T
°C
Wind Press
QNH
hPa
Press
MSL
hPa
Rain since
9am
mm
Dir  Spd
km/h
Gust
km/h
Spd
kts
Gust
kts
04/11:30pm - - - - - ESE 9 13 5 7 - - -
04/11:00pm - - - - - ESE 13 19 7 10 - - -
04/10:30pm - - - - - SSE 17 20 9 11 - - -
04/10:00pm - - - - - SSE 19 22 10 12 - - -
04/09:30pm - - - - - SSE 22 26 12 14 - - -
04/09:00pm - - - - - SSE 19 22 10 12 - - -
04/08:30pm - - - - - S 22 28 12 15 - - -
04/08:00pm - - - - - S 22 28 12 15 - - -
04/07:30pm - - - - - S 24 28 13 15 - - -
04/07:00pm - - - - - S 26 30 14 16 - - -
04/06:30pm - - - - - SSW 26 30 14 16 - - -
04/06:00pm - - - - - SSW 24 28 13 15 - - -
04/05:30pm - - - - - SSW 26 30 14 16 - - -
04/05:00pm - - - - - S 20 26 11 14 - - -
04/04:30pm - - - - - S 20 26 11 14 - - -
04/04:00pm - - - - - SSW 19 22 10 12 - - -
04/03:30pm - - - - - SSW 17 22 9 12 - - -
04/03:00pm - - - - - S 17 20 9 11 - - -
04/02:30pm - - - - - ENE 11 13 6 7 - - -
04/02:00pm - - - - - NE 13 15 7 8 - - -
04/01:30pm - - - - - NNE 19 22 10 12 - - -
04/01:00pm - - - - - NE 13 17 7 9 - - -
04/12:30pm - - - - - ESE 7 9 4 5 - - -
04/12:00pm - - - - - SW 7 9 4 5 - - -
04/11:30am - - - - - WNW 13 17 7 9 - - -
04/11:00am - - - - - WNW 17 22 9 12 - - -
04/10:30am - - - - - WSW 19 24 10 13 - - -
04/10:00am - - - - - WSW 19 28 10 15 - - -
04/09:30am - - - - - W 26 30 14 16 - - -
04/09:00am - - - - - W 26 33 14 18 - - -
04/08:30am - - - - - W 26 30 14 16 - - -
04/08:00am - - - - - W 24 28 13 15 - - -
04/07:30am - - - - - W 26 30 14 16 - - -
04/07:00am - - - - - W 26 30 14 16 - - -
04/06:30am - - - - - SW 35 41 19 22 - - -
04/06:00am - - - - - W 32 35 17 19 - - -
04/05:30am - - - - - W 28 30 15 16 - - -
04/05:00am - - - - - W 20 22 11 12 - - -
04/04:30am - - - - - W 9 13 5 7 - - -
04/04:00am - - - - - WSW 13 15 7 8 - - -
04/03:30am - - - - - SW 17 19 9 10 - - -
04/03:00am - - - - - SW 17 20 9 11 - - -
04/02:30am - - - - - SW 22 24 12 13 - - -
04/02:00am - - - - - SSW 19 22 10 12 - - -
04/01:30am - - - - - SSW 20 24 11 13 - - -
04/01:00am - - - - - SSW 17 19 9 10 - - -
04/12:30am - - - - - SW 9 13 5 7 - - -
04/12:00am - - - - - W 7 9 4 5 - - -
 
Date/Time
EDT
Temp
°C
App
Temp
°C
Dew
Point
°C
Rel
Hum
%
Delta-T
°C
Wind Press
QNH
hPa
Press
MSL
hPa
Rain since
9am
mm
Dir  Spd
km/h
Gust
km/h
Spd
kts
Gust
kts
03/11:30pm - - - - - ENE 6 9 3 5 - - -
03/11:00pm - - - - - ESE 13 19 7 10 - - -
03/10:30pm - - - - - SE 20 24 11 13 - - -
03/10:00pm - - - - - SSE 20 24 11 13 - - -
03/09:30pm - - - - - SE 20 28 11 15 - - -
03/09:00pm - - - - - SE 24 30 13 16 - - -
03/08:30pm - - - - - SSE 28 33 15 18 - - -
03/08:00pm - - - - - SSE 32 35 17 19 - - -
03/07:30pm - - - - - S 35 39 19 21 - - -
03/07:00pm - - - - - S 32 35 17 19 - - -
03/06:30pm - - - - - S 32 33 17 18 - - -
03/06:00pm - - - - - S 30 37 16 20 - - -
03/05:30pm - - - - - S 33 37 18 20 - - -
03/05:00pm - - - - - S 33 39 18 21 - - -
03/04:30pm - - - - - S 28 32 15 17 - - -
03/04:25pm - - - - - S 28 32 15 17 - - -
03/04:00pm - - - - - S 9 13 5 7 - - -
03/03:30pm - - - - - SE 15 17 8 9 - - -
03/03:00pm - - - - - SE 15 19 8 10 - - -
03/02:30pm - - - - - ESE 15 19 8 10 - - -
03/02:00pm - - - - - E 15 17 8 9 - - -
03/01:30pm - - - - - ENE 15 17 8 9 - - -
03/01:00pm - - - - - NE 15 19 8 10 - - -
03/12:30pm - - - - - NNE 15 19 8 10 - - -
03/12:00pm - - - - - N 15 17 8 9 - - -
03/11:30am - - - - - N 13 17 7 9 - - -
03/11:00am - - - - - N 13 17 7 9 - - -
03/10:30am - - - - - NNW 13 19 7 10 - - -
03/10:00am - - - - - N 9 13 5 7 - - -
03/09:30am - - - - - N 6 11 3 6 - - -
03/09:00am - - - - - NW 6 9 3 5 - - -
03/08:30am - - - - - WNW 9 13 5 7 - - -
03/08:00am - - - - - N 7 11 4 6 - - -
03/07:30am - - - - - NNE 13 15 7 8 - - -
03/07:00am - - - - - ENE 15 19 8 10 - - -
03/06:30am - - - - - NE 7 9 4 5 - - -
03/06:00am - - - - - CALM 0 0 0 0 - - -
03/05:30am - - - - - N 6 9 3 5 - - -
03/05:00am - - - - - NNE 6 9 3 5 - - -
03/04:30am - - - - - SE 7 9 4 5 - - -
03/04:00am - - - - - SE 11 15 6 8 - - -
03/03:30am - - - - - SSE 13 19 7 10 - - -
03/03:00am - - - - - SSE 11 15 6 8 - - -
03/02:30am - - - - - SSW 7 13 4 7 - - -
03/02:00am - - - - - SSE 9 13 5 7 - - -
03/01:30am - - - - - SSE 15 17 8 9 - - -
03/01:00am - - - - - S 15 19 8 10 - - -
03/12:30am - - - - - S 17 22 9 12 - - -
03/12:00am - - - - - S 17 22 9 12 - - -
 
Date/Time
EDT
Temp
°C
App
Temp
°C
Dew
Point
°C
Rel
Hum
%
Delta-T
°C
Wind Press
QNH
hPa
Press
MSL
hPa
Rain since
9am
mm
Dir  Spd
km/h
Gust
km/h
Spd
kts
Gust
kts
02/11:30pm - - - - - S 17 24 9 13 - - -
02/11:00pm - - - - - S 17 24 9 13 - - -
02/10:30pm - - - - - S 20 28 11 15 - - -
02/10:00pm - - - - - S 19 26 10 14 - - -
02/09:30pm - - - - - S 20 26 11 14 - - -
02/09:00pm - - - - - S 26 30 14 16 - - -
02/08:30pm - - - - - S 26 33 14 18 - - -
02/08:00pm - - - - - S 28 33 15 18 - - -
02/07:30pm - - - - - S 30 37 16 20 - - -
02/07:00pm - - - - - SSW 28 37 15 20 - - -
02/06:30pm - - - - - SSW 32 37 17 20 - - -
02/06:00pm - - - - - SSW 33 43 18 23 - - -
02/05:30pm - - - - - SSW 32 43 17 23 - - -

Other formats

Comma delimited format used in spreadsheet applications
http://www.bom.gov.au/fwo/IDV60801/IDV60801.94853.axf

JavaScript Object Notation format (JSON) in row-major order
http://www.bom.gov.au/fwo/IDV60801/IDV60801.94853.json

Data quality

Most of these data are generated automatically and are frequently updated. Quality checks on data are not normally performed. It is possible for incorrect values to appear. Refer to information at About Latest Weather Observations and please check the disclaimer before using these data.